createdAt,value
2018-04-28T00:02:05.945Z,2.43
2018-04-28T00:04:34.840Z,2.07
2018-04-28T00:07:03.464Z,1.90
2018-04-28T00:09:32.397Z,1.77
2018-04-28T00:12:01.009Z,1.90
2018-04-28T00:14:29.881Z,2.17
2018-04-28T00:17:10.730Z,1.97
2018-04-28T00:19:40.921Z,2.13
2018-04-28T00:22:24.374Z,1.97
2018-04-28T00:24:58.481Z,1.80
2018-04-28T00:27:33.079Z,1.90
2018-04-28T00:33:23.327Z,2.53
2018-04-28T00:36:01.074Z,2.50
2018-04-28T00:38:29.944Z,2.00
2018-04-28T00:40:58.809Z,2.07
2018-04-28T00:43:32.764Z,2.40
2018-04-28T00:46:04.209Z,1.97
2018-04-28T00:51:39.209Z,2.47
2018-04-28T00:54:10.627Z,2.30
2018-04-28T00:56:39.500Z,2.37
2018-04-28T00:59:23.305Z,1.93
2018-04-28T01:01:53.139Z,2.10
2018-04-28T01:04:46.885Z,1.83
2018-04-28T01:07:27.372Z,1.70
2018-04-28T01:10:07.984Z,1.87
2018-04-28T01:12:39.667Z,1.57
2018-04-28T01:15:16.862Z,2.17
2018-04-28T01:17:54.830Z,1.93
2018-04-28T01:20:33.140Z,2.03
2018-04-28T01:23:08.368Z,1.70
2018-04-28T01:25:41.379Z,1.70
2018-04-28T01:28:21.476Z,1.90
2018-04-28T01:38:07.655Z,1.77
2018-04-28T01:40:38.715Z,1.90
2018-04-28T01:43:40.862Z,2.17
2018-04-28T01:52:08.226Z,2.20
2018-04-28T01:54:50.744Z,1.77
2018-04-28T01:57:24.832Z,2.00
2018-04-28T02:03:14.846Z,2.40
2018-04-28T02:08:54.056Z,1.63
2018-04-28T02:11:25.566Z,2.10
2018-04-28T02:13:57.120Z,1.70
2018-04-28T02:16:37.660Z,2.37
2018-04-28T02:19:09.707Z,1.70
2018-04-28T02:21:58.484Z,1.83
2018-04-28T02:31:14.834Z,2.00
2018-04-28T02:33:47.640Z,2.23
2018-04-28T02:36:31.230Z,1.90
2018-04-28T02:39:01.357Z,2.17
2018-04-28T02:44:31.489Z,2.57
2018-04-28T02:47:20.733Z,2.37
2018-04-28T02:53:12.009Z,2.07
2018-04-28T02:58:55.228Z,2.20
2018-04-28T03:01:29.454Z,1.80
2018-04-28T03:04:03.136Z,2.37
2018-04-28T03:06:52.165Z,2.33
2018-04-28T03:09:23.323Z,2.10
2018-04-28T03:12:10.348Z,2.37
2018-04-28T03:14:47.334Z,2.40
2018-04-28T03:17:24.546Z,2.20
2018-04-28T03:20:03.360Z,2.30
2018-04-28T03:22:32.005Z,2.40
2018-04-28T03:25:10.809Z,2.30
2018-04-28T03:31:08.554Z,2.40
2018-04-28T03:37:16.524Z,2.20
2018-04-28T03:39:51.654Z,2.27
2018-04-28T03:45:59.009Z,2.13
2018-04-28T03:48:41.078Z,2.20
2018-04-28T04:05:07.836Z,2.20
2018-04-28T04:07:46.266Z,2.40
2018-04-28T04:14:16.142Z,2.30
2018-04-28T04:16:47.392Z,2.03
2018-04-28T04:22:47.930Z,1.90
2018-04-28T04:25:24.767Z,2.17
2018-04-28T04:28:03.654Z,2.13
2018-04-28T04:30:42.082Z,2.23
2018-04-28T04:36:54.170Z,2.83
2018-04-28T04:42:56.552Z,1.83
2018-04-28T04:45:34.891Z,2.30
2018-04-28T04:52:13.958Z,2.03
2018-04-28T04:58:14.202Z,2.23
2018-04-28T05:03:55.113Z,2.40
2018-04-28T05:10:00.283Z,2.33
2018-04-28T05:15:33.483Z,2.30
2018-04-28T05:18:19.923Z,2.33
2018-04-28T05:20:57.327Z,5.93
2018-04-28T05:23:39.622Z,5.17
2018-04-28T05:26:21.107Z,3.87
2018-04-28T05:32:34.378Z,2.47
2018-04-28T05:35:15.650Z,2.47
2018-04-28T05:37:56.568Z,2.20
2018-04-28T05:40:45.822Z,2.00
2018-04-28T05:43:24.201Z,1.83
2018-04-28T05:49:33.340Z,1.60
2018-04-28T05:55:38.231Z,2.40
2018-04-28T05:58:35.485Z,2.37
2018-04-28T06:01:14.722Z,2.63
2018-04-28T06:04:01.241Z,2.60
2018-04-28T06:06:58.358Z,2.57
2018-04-28T06:23:20.661Z,2.20
2018-04-28T06:25:49.552Z,2.40
2018-04-28T06:28:18.191Z,2.13
2018-04-28T06:30:47.245Z,2.30
2018-04-28T06:33:16.568Z,2.97
2018-04-28T06:35:45.507Z,3.20
2018-04-28T06:38:14.936Z,3.70
2018-04-28T06:40:44.246Z,3.17
2018-04-28T06:43:14.245Z,3.13
2018-04-28T06:45:43.148Z,2.77
2018-04-28T06:48:12.419Z,3.37
2018-04-28T06:50:41.974Z,2.80
2018-04-28T06:53:11.496Z,2.83
2018-04-28T06:55:40.339Z,3.13
2018-04-28T06:58:10.951Z,2.57
2018-04-28T07:00:40.245Z,2.70
2018-04-28T07:03:09.196Z,3.00
2018-04-28T07:05:38.399Z,2.70
2018-04-28T07:08:07.279Z,2.53
2018-04-28T07:10:36.195Z,2.30
2018-04-28T07:13:05.067Z,2.70
2018-04-28T07:15:33.944Z,2.47
2018-04-28T07:18:03.210Z,2.50
2018-04-28T07:21:25.813Z,2.57
2018-04-28T07:23:54.685Z,2.03
2018-04-28T07:26:24.059Z,2.23
2018-04-28T07:28:52.931Z,3.50
2018-04-28T07:31:21.823Z,2.70
2018-04-28T07:38:22.943Z,2.20
2018-04-28T07:40:52.252Z,2.47
2018-04-28T07:43:21.451Z,2.10
2018-04-28T07:45:50.743Z,2.40
2018-04-28T07:48:20.055Z,1.97
2018-04-28T07:50:48.965Z,2.10
2018-04-28T07:53:18.177Z,2.00
2018-04-28T07:55:47.708Z,2.17
2018-04-28T07:58:17.066Z,2.27
2018-04-28T08:00:46.608Z,1.60
2018-04-28T08:03:15.508Z,2.53
2018-04-28T08:05:44.404Z,2.10
2018-04-28T08:08:13.982Z,2.37
2018-04-28T08:10:42.904Z,2.70
2018-04-28T08:13:12.149Z,2.40
2018-04-28T08:15:41.942Z,2.35
2018-04-28T08:18:11.686Z,2.60
2018-04-28T08:20:41.200Z,2.60
2018-04-28T08:23:11.125Z,2.22
2018-04-28T08:25:40.020Z,2.50
2018-04-28T08:28:09.664Z,2.30
2018-04-28T08:30:38.978Z,2.53
2018-04-28T08:33:08.349Z,2.33
2018-04-28T08:35:37.277Z,2.23
2018-04-28T08:38:06.553Z,2.60
2018-04-28T08:40:35.448Z,2.67
2018-04-28T08:43:04.688Z,2.57
2018-04-28T08:45:33.611Z,2.50
2018-04-28T08:48:02.426Z,2.37
2018-04-28T08:50:32.045Z,2.40
2018-04-28T08:53:01.440Z,2.10
2018-04-28T08:55:31.063Z,2.90
2018-04-28T08:58:00.172Z,2.23
2018-04-28T09:00:32.531Z,2.50
2018-04-28T09:03:02.611Z,2.40
2018-04-28T09:05:32.175Z,2.60
2018-04-28T09:08:01.701Z,2.27
2018-04-28T09:10:31.260Z,2.50
2018-04-28T09:13:00.813Z,2.20
2018-04-28T09:15:30.928Z,2.23
2018-04-28T09:18:00.477Z,2.53
2018-04-28T09:20:30.056Z,2.50
2018-04-28T09:22:59.576Z,2.90
2018-04-28T09:25:29.129Z,2.80
2018-04-28T09:27:58.668Z,2.80
2018-04-28T09:30:28.221Z,2.53
2018-04-28T09:32:57.793Z,2.73
2018-04-28T09:35:27.459Z,2.87
2018-04-28T09:37:56.980Z,2.83
2018-04-28T09:40:26.490Z,2.20
2018-04-28T09:42:56.076Z,2.43
2018-04-28T09:45:25.642Z,2.43
2018-04-28T09:47:55.400Z,2.20
2018-04-28T09:50:25.210Z,2.40
2018-04-28T09:52:55.146Z,2.47
2018-04-28T09:55:24.930Z,2.10
2018-04-28T09:58:09.336Z,2.37
2018-04-28T10:00:57.442Z,2.20
2018-04-28T10:03:30.800Z,2.20
2018-04-28T10:06:00.420Z,2.50
2018-04-28T10:08:30.950Z,2.37
2018-04-28T10:11:01.571Z,1.97
2018-04-28T10:13:31.248Z,2.08
2018-04-28T10:16:01.376Z,2.30
2018-04-28T10:18:31.900Z,2.17
2018-04-28T10:21:02.676Z,2.40
2018-04-28T10:23:32.624Z,2.37
2018-04-28T10:26:03.036Z,2.28
2018-04-28T10:28:33.152Z,2.22
2018-04-28T10:31:03.388Z,2.12
2018-04-28T10:33:33.500Z,2.30
2018-04-28T10:36:03.112Z,2.17
2018-04-28T10:38:33.056Z,2.27
2018-04-28T10:41:02.648Z,2.20
2018-04-28T10:43:32.209Z,2.33
2018-04-28T10:46:02.228Z,2.62
2018-04-28T10:48:32.360Z,2.90
2018-04-28T10:51:02.468Z,2.70
2018-04-28T10:53:32.258Z,2.25
2018-04-28T10:56:01.966Z,2.47
2018-04-28T10:58:31.830Z,2.80
2018-04-28T11:01:01.768Z,2.30
2018-04-28T11:03:31.298Z,2.60
2018-04-28T11:06:02.112Z,2.60
2018-04-28T11:08:32.217Z,2.58
2018-04-28T11:11:02.381Z,3.20
2018-04-28T11:13:33.103Z,2.30
2018-04-28T11:16:03.207Z,1.95
2018-04-28T11:18:34.165Z,2.58
2018-04-28T11:21:04.428Z,2.25
2018-04-28T11:23:34.520Z,2.40
2018-04-28T11:26:04.688Z,2.70
2018-04-28T11:28:34.590Z,2.40
2018-04-28T11:31:04.687Z,2.58
2018-04-28T11:33:34.793Z,2.40
2018-04-28T11:36:04.868Z,2.28
2018-04-28T11:38:35.105Z,2.67
2018-04-28T11:41:05.323Z,2.28
2018-04-28T11:43:35.433Z,2.12
2018-04-28T11:46:05.695Z,2.42
2018-04-28T11:48:36.171Z,2.83
2018-04-28T11:51:06.295Z,2.67
2018-04-28T11:53:35.997Z,2.30
2018-04-28T11:56:06.079Z,2.37
2018-04-28T11:58:35.615Z,2.40
2018-04-28T12:01:05.541Z,2.67
2018-04-28T12:03:35.556Z,2.45
2018-04-28T12:06:05.392Z,2.62
2018-04-28T12:08:37.439Z,2.50
2018-04-28T12:11:07.553Z,2.40
2018-04-28T12:13:37.656Z,2.20
2018-04-28T12:16:07.746Z,2.42
2018-04-28T12:18:38.487Z,2.60
2018-04-28T12:21:09.000Z,3.15
2018-04-28T12:23:39.354Z,2.72
2018-04-28T12:26:09.466Z,2.40
2018-04-28T12:28:39.962Z,2.53
2018-04-28T12:31:10.073Z,2.72
2018-04-28T12:33:40.327Z,2.85
2018-04-28T12:36:10.836Z,2.72
2018-04-28T12:38:40.917Z,2.50
2018-04-28T12:41:11.002Z,2.30
2018-04-28T12:43:41.482Z,2.62
2018-04-28T12:46:11.491Z,2.72
2018-04-28T12:48:41.574Z,2.92
2018-04-28T12:51:12.191Z,2.60
2018-04-28T12:53:42.006Z,2.53
2018-04-28T12:56:12.482Z,2.70
2018-04-28T12:58:42.552Z,2.33
2018-04-28T13:01:13.112Z,2.70
2018-04-28T13:03:43.261Z,2.45
2018-04-28T13:06:13.507Z,2.55
2018-04-28T13:08:43.434Z,2.65
2018-04-28T13:11:13.540Z,2.15
2018-04-28T13:13:43.612Z,2.72
2018-04-28T13:16:13.694Z,2.10
2018-04-28T13:18:43.790Z,2.40
2018-04-28T13:21:14.157Z,2.15
2018-04-28T13:23:44.686Z,2.50
2018-04-28T13:26:15.004Z,2.55
2018-04-28T13:28:45.492Z,2.60
2018-04-28T13:31:15.578Z,2.45
2018-04-28T13:33:45.669Z,2.25
2018-04-28T13:36:16.138Z,2.10
2018-04-28T13:38:46.460Z,2.40
2018-04-28T13:41:16.612Z,2.80
2018-04-28T13:43:46.701Z,2.20
2018-04-28T13:46:16.830Z,3.00
2018-04-28T13:48:46.914Z,3.05
2018-04-28T13:51:17.405Z,2.70
2018-04-28T13:53:47.480Z,2.67
2018-04-28T13:56:17.608Z,2.78
2018-04-28T13:58:47.691Z,2.90
2018-04-28T14:01:18.187Z,2.35
2018-04-28T14:03:47.938Z,2.37
2018-04-28T14:06:17.821Z,3.42
2018-04-28T14:08:47.668Z,2.53
2018-04-28T14:11:17.766Z,3.28
2018-04-28T14:13:47.884Z,2.58
2018-04-28T14:16:17.977Z,2.40
2018-04-28T14:18:48.137Z,2.33
2018-04-28T14:21:18.657Z,2.55
2018-04-28T14:23:48.781Z,2.33
2018-04-28T14:26:18.889Z,2.78
2018-04-28T14:28:49.215Z,2.60
2018-04-28T14:31:19.303Z,2.87
2018-04-28T14:33:49.410Z,3.00
2018-04-28T14:36:19.508Z,2.60
2018-04-28T14:38:49.955Z,2.87
2018-04-28T14:41:20.051Z,3.28
2018-04-28T14:43:50.332Z,2.95
2018-04-28T14:46:20.443Z,2.80
2018-04-28T14:48:50.561Z,2.70
2018-04-28T14:51:20.999Z,2.50
2018-04-28T14:53:51.113Z,2.60
2018-04-28T14:56:21.429Z,3.00
2018-04-28T14:58:51.566Z,2.87
2018-04-28T15:01:21.399Z,2.85
2018-04-28T15:03:51.379Z,2.60
2018-04-28T15:06:21.448Z,2.70
2018-04-28T15:08:51.913Z,2.80
2018-04-28T15:11:22.042Z,2.70
2018-04-28T15:13:52.129Z,3.05
2018-04-28T15:16:22.228Z,2.97
2018-04-28T15:18:53.007Z,3.17
2018-04-28T15:21:23.123Z,2.80
2018-04-28T15:23:53.577Z,2.80
2018-04-28T15:26:23.973Z,2.87
2018-04-28T15:28:54.331Z,2.78
2018-04-28T15:31:24.724Z,2.65
2018-04-28T15:33:54.912Z,3.17
2018-04-28T15:36:25.611Z,3.60
2018-04-28T15:38:55.794Z,3.20
2018-04-28T15:41:25.957Z,3.15
2018-04-28T15:43:56.107Z,2.83
2018-04-28T15:46:26.704Z,3.10
2018-04-28T15:48:56.993Z,2.90
2018-04-28T15:51:27.125Z,3.47
2018-04-28T15:53:57.195Z,2.83
2018-04-28T15:56:27.771Z,2.95
2018-04-28T15:58:57.861Z,2.67
2018-04-28T16:01:27.989Z,3.17
2018-04-28T16:03:58.075Z,3.28
2018-04-28T16:06:28.869Z,3.20
2018-04-28T16:08:58.954Z,3.30
2018-04-28T16:11:29.037Z,2.85
2018-04-28T16:13:59.171Z,3.15
2018-04-28T16:16:29.267Z,3.00
2018-04-28T16:18:59.356Z,3.30
2018-04-28T16:21:29.523Z,3.40
2018-04-28T16:23:59.608Z,3.33
2018-04-28T16:26:29.680Z,2.90
2018-04-28T16:29:00.151Z,3.40
2018-04-28T16:31:30.287Z,3.00
2018-04-28T16:34:00.366Z,2.87
2018-04-28T16:36:30.439Z,2.80
2018-04-28T16:39:00.513Z,2.97
2018-04-28T16:41:30.599Z,2.80
2018-04-28T16:44:01.118Z,3.20
2018-04-28T16:46:31.199Z,3.35
2018-04-28T16:49:01.301Z,3.20
2018-04-28T16:51:31.381Z,3.20
2018-04-28T16:54:01.303Z,3.00
2018-04-28T16:56:31.490Z,2.90
2018-04-28T16:59:01.783Z,2.90
2018-04-28T17:01:32.054Z,2.90
2018-04-28T17:04:02.186Z,3.20
2018-04-28T17:06:32.363Z,3.35
2018-04-28T17:09:02.819Z,3.28
2018-04-28T17:11:32.891Z,3.35
2018-04-28T17:14:03.046Z,2.80
2018-04-28T17:16:33.184Z,2.78
2018-04-28T17:19:03.318Z,3.28
2018-04-28T17:21:33.419Z,2.62
2018-04-28T17:24:03.495Z,2.78
2018-04-28T17:26:33.643Z,2.90
2018-04-28T17:29:03.460Z,2.80
2018-04-28T17:31:33.615Z,2.80
2018-04-28T17:34:03.700Z,2.70
2018-04-28T17:36:33.777Z,2.90
2018-04-28T17:39:03.682Z,2.70
2018-04-28T17:41:34.459Z,2.60
2018-04-28T17:44:04.609Z,3.00
2018-04-28T17:46:34.743Z,2.80
2018-04-28T17:49:05.231Z,2.78
2018-04-28T17:51:35.303Z,3.20
2018-04-28T17:54:05.832Z,2.75
2018-04-28T17:56:35.925Z,2.65
2018-04-28T17:59:06.027Z,3.03
2018-04-28T18:01:36.128Z,3.22
2018-04-28T18:04:05.884Z,3.47
2018-04-28T18:06:36.434Z,3.42
2018-04-28T18:09:06.609Z,3.65
2018-04-28T18:11:36.695Z,3.03
2018-04-28T18:14:06.808Z,3.37
2018-04-28T18:16:36.893Z,3.20
2018-04-28T18:19:06.987Z,3.62
2018-04-28T18:21:37.219Z,3.60
2018-04-28T18:24:07.315Z,3.40
2018-04-28T18:26:37.537Z,3.35
2018-04-28T18:29:07.624Z,3.08
2018-04-28T18:31:37.218Z,3.40
2018-04-28T18:34:07.719Z,3.60
2018-04-28T18:36:37.247Z,3.03
2018-04-28T18:39:07.404Z,3.03
2018-04-28T18:41:37.531Z,3.10
2018-04-28T18:44:08.158Z,2.75
2018-04-28T18:46:38.501Z,3.03
2018-04-28T18:49:08.769Z,3.20
2018-04-28T18:51:40.555Z,4.62
2018-04-28T18:54:10.721Z,5.45
2018-04-28T18:56:40.098Z,5.80
2018-04-28T18:59:10.254Z,5.85
2018-04-28T19:01:40.399Z,5.45
2018-04-28T19:04:10.913Z,5.10
2018-04-28T19:06:41.332Z,4.87
2018-04-28T19:09:10.630Z,4.55
2018-04-28T19:11:40.264Z,4.33
2018-04-28T19:14:10.551Z,4.00
2018-04-28T19:16:42.098Z,3.90
2018-04-28T19:19:11.731Z,4.10
2018-04-28T19:21:41.306Z,4.10
2018-04-28T19:24:11.231Z,3.93
2018-04-28T19:26:40.809Z,4.33
2018-04-28T19:29:10.765Z,3.77
2018-04-28T19:31:40.303Z,4.30
2018-04-28T19:34:09.506Z,4.67
2018-04-28T19:36:39.077Z,4.23
2018-04-28T19:39:08.615Z,5.40
2018-04-28T19:41:38.655Z,6.03
2018-04-28T19:44:09.146Z,8.07
2018-04-28T19:46:38.749Z,8.57
2018-04-28T19:49:08.520Z,12.20
2018-04-28T19:51:38.230Z,14.60
2018-04-28T19:54:08.184Z,14.97
2018-04-28T19:56:38.531Z,10.87
2018-04-28T19:59:08.144Z,12.60
2018-04-28T20:01:37.686Z,14.00
2018-04-28T20:04:07.635Z,12.70
2018-04-28T20:06:37.162Z,7.57
2018-04-28T20:09:07.286Z,5.57
2018-04-28T20:11:36.911Z,4.80
2018-04-28T20:14:06.491Z,4.60
2018-04-28T20:16:36.042Z,4.27
2018-04-28T20:19:06.008Z,4.40
2018-04-28T20:21:35.845Z,4.13
2018-04-28T20:24:22.921Z,4.63
2018-04-28T20:26:53.066Z,4.43
2018-04-28T20:29:22.673Z,4.57
2018-04-28T20:31:52.286Z,4.20
2018-04-28T20:34:21.882Z,4.70
2018-04-28T20:36:51.785Z,4.50
2018-04-28T20:39:21.332Z,4.30
2018-04-28T20:41:50.885Z,4.37
2018-04-28T20:44:20.416Z,4.60
2018-04-28T20:46:50.021Z,4.83
2018-04-28T20:49:19.906Z,4.83
2018-04-28T20:51:49.490Z,7.40
2018-04-28T20:54:19.046Z,6.17
2018-04-28T20:56:48.786Z,6.57
2018-04-28T20:59:18.364Z,6.00
2018-04-28T21:01:48.174Z,5.37
2018-04-28T21:04:17.705Z,5.60
2018-04-28T21:06:47.284Z,6.83
2018-04-28T21:09:17.719Z,5.13
2018-04-28T21:11:47.237Z,4.80
2018-04-28T21:14:17.017Z,5.40
2018-04-28T21:16:46.576Z,6.47
2018-04-28T21:19:16.306Z,7.40
2018-04-28T21:21:47.066Z,7.30
2018-04-28T21:24:17.726Z,8.00
2018-04-28T21:26:47.254Z,9.90
2018-04-28T21:29:16.844Z,8.97
2018-04-28T21:31:46.416Z,8.07
2018-04-28T21:34:16.469Z,5.93
2018-04-28T21:36:47.024Z,5.73
2018-04-28T21:39:16.537Z,4.97
2018-04-28T21:41:46.079Z,6.00
2018-04-28T21:44:15.640Z,5.67
2018-04-28T21:46:45.764Z,5.33
2018-04-28T21:49:16.034Z,5.77
2018-04-28T21:51:45.578Z,4.97
2018-04-28T21:54:15.171Z,4.80
2018-04-28T21:56:45.047Z,5.07
2018-04-28T21:59:14.972Z,5.50
2018-04-28T22:01:45.797Z,5.30
2018-04-28T22:04:15.332Z,5.00
2018-04-28T22:06:44.948Z,5.30
2018-04-28T22:09:14.506Z,4.93
2018-04-28T22:11:44.480Z,5.13
2018-04-28T22:14:14.006Z,5.10
2018-04-28T22:16:43.550Z,5.10
2018-04-28T22:19:13.480Z,5.20
2018-04-28T22:21:43.492Z,5.33
2018-04-28T22:24:13.476Z,5.00
2018-04-28T22:26:43.309Z,4.83
2018-04-28T22:29:13.256Z,5.33
2018-04-28T22:31:42.792Z,5.60
2018-04-28T22:34:12.444Z,5.50
2018-04-28T22:36:42.408Z,5.50
2018-04-28T22:39:12.100Z,4.83
2018-04-28T22:41:41.824Z,5.60
2018-04-28T22:44:11.704Z,4.80
2018-04-28T22:46:41.654Z,5.40
2018-04-28T22:49:11.190Z,5.27
2018-04-28T22:51:40.705Z,5.10
2018-04-28T22:54:10.222Z,4.87
2018-04-28T22:56:39.984Z,5.20
2018-04-28T22:59:09.595Z,4.73
2018-04-28T23:01:39.316Z,5.27
2018-04-28T23:04:08.982Z,4.83
2018-04-28T23:06:38.992Z,5.30
2018-04-28T23:09:08.935Z,5.73
2018-04-28T23:11:38.681Z,5.60
2018-04-28T23:14:08.221Z,5.57
2018-04-28T23:16:38.418Z,5.60
2018-04-28T23:19:08.003Z,4.90
2018-04-28T23:21:37.573Z,4.50
2018-04-28T23:24:07.120Z,4.80
2018-04-28T23:26:36.672Z,4.40
2018-04-28T23:29:06.630Z,4.60
2018-04-28T23:32:24.592Z,4.33
2018-04-28T23:34:54.138Z,4.10
2018-04-28T23:37:24.118Z,4.47
2018-04-28T23:39:53.674Z,3.93
2018-04-28T23:42:23.868Z,4.37
2018-04-28T23:44:53.850Z,4.30
2018-04-28T23:47:23.370Z,4.50
2018-04-28T23:49:52.894Z,4.40
2018-04-28T23:52:22.680Z,4.87
2018-04-28T23:54:52.076Z,4.50
2018-04-28T23:57:21.596Z,3.93
2018-04-28T23:59:51.129Z,3.80
